sensor_id;sensor_type;location;lat;lon;timestamp;P1;durP1;ratioP1;P2;durP2;ratioP2
2480;SDS011;57396;48.742;9.128;2024-01-16T00:01:15;8.40;;;5.20;;
2480;SDS011;57396;48.742;9.128;2024-01-16T00:03:43;7.50;;;5.20;;
2480;SDS011;57396;48.742;9.128;2024-01-16T00:06:09;7.73;;;5.80;;
2480;SDS011;57396;48.742;9.128;2024-01-16T00:08:35;8.77;;;5.50;;
2480;SDS011;57396;48.742;9.128;2024-01-16T00:11:03;8.90;;;5.50;;
2480;SDS011;57396;48.742;9.128;2024-01-16T00:13:29;10.90;;;5.50;;
2480;SDS011;57396;48.742;9.128;2024-01-16T00:15:54;8.83;;;5.97;;
2480;SDS011;57396;48.742;9.128;2024-01-16T00:18:21;8.00;;;6.17;;
2480;SDS011;57396;48.742;9.128;2024-01-16T00:20:47;8.60;;;5.30;;
2480;SDS011;57396;48.742;9.128;2024-01-16T00:23:12;10.40;;;5.80;;
2480;SDS011;57396;48.742;9.128;2024-01-16T00:25:38;8.87;;;5.87;;
2480;SDS011;57396;48.742;9.128;2024-01-16T00:28:03;6.67;;;4.63;;
2480;SDS011;57396;48.742;9.128;2024-01-16T00:30:29;10.10;;;6.23;;
2480;SDS011;57396;48.742;9.128;2024-01-16T00:32:55;8.20;;;5.47;;
2480;SDS011;57396;48.742;9.128;2024-01-16T00:35:20;8.43;;;5.57;;
2480;SDS011;57396;48.742;9.128;2024-01-16T00:37:46;10.20;;;5.80;;
2480;SDS011;57396;48.742;9.128;2024-01-16T00:40:11;10.50;;;6.37;;
2480;SDS011;57396;48.742;9.128;2024-01-16T00:42:37;9.07;;;4.80;;
2480;SDS011;57396;48.742;9.128;2024-01-16T00:45:03;8.87;;;5.60;;
2480;SDS011;57396;48.742;9.128;2024-01-16T00:47:29;7.67;;;5.13;;
2480;SDS011;57396;48.742;9.128;2024-01-16T00:49:55;10.23;;;6.13;;
2480;SDS011;57396;48.742;9.128;2024-01-16T00:52:20;9.73;;;5.30;;
2480;SDS011;57396;48.742;9.128;2024-01-16T00:54:46;9.70;;;5.27;;
2480;SDS011;57396;48.742;9.128;2024-01-16T00:57:11;8.37;;;5.17;;
2480;SDS011;57396;48.742;9.128;2024-01-16T00:59:37;8.17;;;5.90;;
2480;SDS011;57396;48.742;9.128;2024-01-16T01:02:03;9.20;;;4.97;;
2480;SDS011;57396;48.742;9.128;2024-01-16T01:04:32;9.00;;;5.17;;
2480;SDS011;57396;48.742;9.128;2024-01-16T01:06:58;8.60;;;5.70;;
2480;SDS011;57396;48.742;9.128;2024-01-16T01:09:23;7.97;;;4.70;;
2480;SDS011;57396;48.742;9.128;2024-01-16T01:11:49;8.03;;;4.83;;
2480;SDS011;57396;48.742;9.128;2024-01-16T01:14:14;9.97;;;5.47;;
2480;SDS011;57396;48.742;9.128;2024-01-16T01:16:39;6.97;;;4.90;;
2480;SDS011;57396;48.742;9.128;2024-01-16T01:19:05;7.50;;;5.00;;
2480;SDS011;57396;48.742;9.128;2024-01-16T01:21:30;6.83;;;4.67;;
2480;SDS011;57396;48.742;9.128;2024-01-16T01:23:56;7.70;;;5.57;;
2480;SDS011;57396;48.742;9.128;2024-01-16T01:26:21;8.20;;;5.10;;
2480;SDS011;57396;48.742;9.128;2024-01-16T01:28:48;7.03;;;4.60;;
2480;SDS011;57396;48.742;9.128;2024-01-16T01:31:13;8.87;;;5.50;;
2480;SDS011;57396;48.742;9.128;2024-01-16T01:33:39;6.00;;;4.87;;
2480;SDS011;57396;48.742;9.128;2024-01-16T01:36:04;5.97;;;4.67;;
2480;SDS011;57396;48.742;9.128;2024-01-16T01:38:30;6.80;;;4.73;;
2480;SDS011;57396;48.742;9.128;2024-01-16T01:40:56;8.27;;;4.97;;
2480;SDS011;57396;48.742;9.128;2024-01-16T01:43:22;8.60;;;5.47;;
2480;SDS011;57396;48.742;9.128;2024-01-16T01:48:29;7.87;;;5.13;;
2480;SDS011;57396;48.742;9.128;2024-01-16T01:50:57;7.30;;;5.13;;
2480;SDS011;57396;48.742;9.128;2024-01-16T01:53:22;8.30;;;5.57;;
2480;SDS011;57396;48.742;9.128;2024-01-16T01:55:48;6.70;;;5.50;;
2480;SDS011;57396;48.742;9.128;2024-01-16T01:58:14;6.47;;;4.33;;
2480;SDS011;57396;48.742;9.128;2024-01-16T02:00:39;8.00;;;5.07;;
2480;SDS011;57396;48.742;9.128;2024-01-16T02:03:05;10.23;;;5.57;;
2480;SDS011;57396;48.742;9.128;2024-01-16T02:05:30;6.17;;;4.63;;
2480;SDS011;57396;48.742;9.128;2024-01-16T02:07:57;7.70;;;5.10;;
2480;SDS011;57396;48.742;9.128;2024-01-16T02:10:22;11.13;;;5.07;;
2480;SDS011;57396;48.742;9.128;2024-01-16T02:12:48;7.40;;;5.07;;
2480;SDS011;57396;48.742;9.128;2024-01-16T02:15:13;7.03;;;5.00;;
2480;SDS011;57396;48.742;9.128;2024-01-16T02:17:39;8.93;;;5.10;;
2480;SDS011;57396;48.742;9.128;2024-01-16T02:20:05;11.43;;;5.37;;
2480;SDS011;57396;48.742;9.128;2024-01-16T02:22:32;9.60;;;5.37;;
2480;SDS011;57396;48.742;9.128;2024-01-16T02:24:58;9.23;;;5.17;;
2480;SDS011;57396;48.742;9.128;2024-01-16T02:27:24;13.10;;;5.20;;
2480;SDS011;57396;48.742;9.128;2024-01-16T02:29:49;6.90;;;4.63;;
2480;SDS011;57396;48.742;9.128;2024-01-16T02:32:15;8.03;;;4.90;;
2480;SDS011;57396;48.742;9.128;2024-01-16T02:34:41;9.17;;;5.80;;
2480;SDS011;57396;48.742;9.128;2024-01-16T02:37:06;8.40;;;5.20;;
2480;SDS011;57396;48.742;9.128;2024-01-16T02:39:32;12.23;;;5.30;;
2480;SDS011;57396;48.742;9.128;2024-01-16T02:41:57;5.57;;;4.60;;
2480;SDS011;57396;48.742;9.128;2024-01-16T02:44:23;8.43;;;5.00;;
2480;SDS011;57396;48.742;9.128;2024-01-16T02:46:48;6.47;;;4.73;;
2480;SDS011;57396;48.742;9.128;2024-01-16T02:49:14;8.03;;;4.97;;
2480;SDS011;57396;48.742;9.128;2024-01-16T02:51:40;7.70;;;4.53;;
2480;SDS011;57396;48.742;9.128;2024-01-16T02:54:06;5.70;;;4.40;;
2480;SDS011;57396;48.742;9.128;2024-01-16T02:56:33;7.23;;;5.00;;
2480;SDS011;57396;48.742;9.128;2024-01-16T02:58:58;7.07;;;5.07;;
2480;SDS011;57396;48.742;9.128;2024-01-16T03:01:24;7.93;;;5.33;;
2480;SDS011;57396;48.742;9.128;2024-01-16T03:03:49;5.77;;;4.93;;
2480;SDS011;57396;48.742;9.128;2024-01-16T03:06:22;7.60;;;4.80;;
2480;SDS011;57396;48.742;9.128;2024-01-16T03:08:48;7.83;;;4.90;;
2480;SDS011;57396;48.742;9.128;2024-01-16T03:11:14;6.40;;;5.00;;
2480;SDS011;57396;48.742;9.128;2024-01-16T03:13:39;6.93;;;4.73;;
2480;SDS011;57396;48.742;9.128;2024-01-16T03:16:08;12.00;;;5.23;;
2480;SDS011;57396;48.742;9.128;2024-01-16T03:18:34;8.70;;;5.27;;
2480;SDS011;57396;48.742;9.128;2024-01-16T03:20:59;6.80;;;4.97;;
2480;SDS011;57396;48.742;9.128;2024-01-16T03:23:24;8.20;;;4.77;;
2480;SDS011;57396;48.742;9.128;2024-01-16T03:25:50;7.50;;;5.07;;
2480;SDS011;57396;48.742;9.128;2024-01-16T03:28:15;6.20;;;4.80;;
2480;SDS011;57396;48.742;9.128;2024-01-16T03:30:41;9.17;;;4.80;;
2480;SDS011;57396;48.742;9.128;2024-01-16T03:33:06;6.43;;;4.50;;
2480;SDS011;57396;48.742;9.128;2024-01-16T03:35:32;6.20;;;4.73;;
2480;SDS011;57396;48.742;9.128;2024-01-16T03:37:57;7.67;;;5.00;;
2480;SDS011;57396;48.742;9.128;2024-01-16T03:40:23;7.20;;;5.20;;
2480;SDS011;57396;48.742;9.128;2024-01-16T03:42:49;7.07;;;4.70;;
2480;SDS011;57396;48.742;9.128;2024-01-16T03:45:14;8.73;;;5.10;;
2480;SDS011;57396;48.742;9.128;2024-01-16T03:47:40;8.00;;;5.73;;
2480;SDS011;57396;48.742;9.128;2024-01-16T03:50:05;12.27;;;5.67;;
2480;SDS011;57396;48.742;9.128;2024-01-16T03:52:31;8.20;;;4.87;;
2480;SDS011;57396;48.742;9.128;2024-01-16T03:54:57;7.83;;;5.33;;
2480;SDS011;57396;48.742;9.128;2024-01-16T03:57:22;6.10;;;4.57;;
2480;SDS011;57396;48.742;9.128;2024-01-16T03:59:48;6.00;;;4.67;;
2480;SDS011;57396;48.742;9.128;2024-01-16T04:02:13;9.43;;;4.73;;
2480;SDS011;57396;48.742;9.128;2024-01-16T04:04:39;9.10;;;4.90;;
2480;SDS011;57396;48.742;9.128;2024-01-16T04:07:04;8.13;;;4.70;;
2480;SDS011;57396;48.742;9.128;2024-01-16T04:09:30;5.70;;;3.93;;
2480;SDS011;57396;48.742;9.128;2024-01-16T04:11:56;7.33;;;4.80;;
2480;SDS011;57396;48.742;9.128;2024-01-16T04:14:21;6.93;;;4.80;;
2480;SDS011;57396;48.742;9.128;2024-01-16T04:16:47;5.00;;;3.90;;
2480;SDS011;57396;48.742;9.128;2024-01-16T04:19:12;5.80;;;4.57;;
2480;SDS011;57396;48.742;9.128;2024-01-16T04:21:38;7.70;;;5.10;;
2480;SDS011;57396;48.742;9.128;2024-01-16T04:24:03;10.53;;;5.03;;
2480;SDS011;57396;48.742;9.128;2024-01-16T04:26:29;11.60;;;5.37;;
2480;SDS011;57396;48.742;9.128;2024-01-16T04:28:54;7.07;;;5.10;;
2480;SDS011;57396;48.742;9.128;2024-01-16T04:31:20;5.60;;;4.40;;
2480;SDS011;57396;48.742;9.128;2024-01-16T04:33:47;6.60;;;4.93;;
2480;SDS011;57396;48.742;9.128;2024-01-16T04:36:13;6.70;;;4.50;;
2480;SDS011;57396;48.742;9.128;2024-01-16T04:38:38;6.90;;;4.70;;
2480;SDS011;57396;48.742;9.128;2024-01-16T04:41:03;7.63;;;5.30;;
2480;SDS011;57396;48.742;9.128;2024-01-16T04:43:29;7.47;;;4.43;;
2480;SDS011;57396;48.742;9.128;2024-01-16T04:45:55;9.07;;;4.97;;
2480;SDS011;57396;48.742;9.128;2024-01-16T04:48:20;8.20;;;5.00;;
2480;SDS011;57396;48.742;9.128;2024-01-16T04:50:46;8.23;;;4.00;;
2480;SDS011;57396;48.742;9.128;2024-01-16T04:53:11;10.07;;;4.70;;
2480;SDS011;57396;48.742;9.128;2024-01-16T04:55:37;11.20;;;4.63;;
2480;SDS011;57396;48.742;9.128;2024-01-16T04:58:02;5.60;;;4.00;;
2480;SDS011;57396;48.742;9.128;2024-01-16T05:00:28;10.20;;;4.20;;
2480;SDS011;57396;48.742;9.128;2024-01-16T05:02:53;9.50;;;4.97;;
2480;SDS011;57396;48.742;9.128;2024-01-16T05:05:19;7.10;;;4.57;;
2480;SDS011;57396;48.742;9.128;2024-01-16T05:07:44;8.47;;;5.00;;
2480;SDS011;57396;48.742;9.128;2024-01-16T05:10:10;6.80;;;4.57;;
2480;SDS011;57396;48.742;9.128;2024-01-16T05:12:38;8.53;;;4.47;;
2480;SDS011;57396;48.742;9.128;2024-01-16T05:15:04;8.90;;;4.53;;
2480;SDS011;57396;48.742;9.128;2024-01-16T05:17:30;9.07;;;5.13;;
2480;SDS011;57396;48.742;9.128;2024-01-16T05:19:56;6.10;;;4.00;;
2480;SDS011;57396;48.742;9.128;2024-01-16T05:22:21;5.27;;;4.20;;
2480;SDS011;57396;48.742;9.128;2024-01-16T05:24:47;5.33;;;4.33;;
2480;SDS011;57396;48.742;9.128;2024-01-16T05:27:12;6.63;;;4.20;;
2480;SDS011;57396;48.742;9.128;2024-01-16T05:29:40;4.93;;;3.40;;
2480;SDS011;57396;48.742;9.128;2024-01-16T05:32:06;6.60;;;4.40;;
2480;SDS011;57396;48.742;9.128;2024-01-16T05:34:31;7.70;;;4.90;;
2480;SDS011;57396;48.742;9.128;2024-01-16T05:36:57;7.10;;;4.77;;
2480;SDS011;57396;48.742;9.128;2024-01-16T05:39:22;5.77;;;4.03;;
2480;SDS011;57396;48.742;9.128;2024-01-16T05:41:47;11.57;;;4.63;;
2480;SDS011;57396;48.742;9.128;2024-01-16T05:44:13;6.50;;;4.90;;
2480;SDS011;57396;48.742;9.128;2024-01-16T05:46:38;5.67;;;4.47;;
2480;SDS011;57396;48.742;9.128;2024-01-16T05:49:04;8.00;;;4.50;;
2480;SDS011;57396;48.742;9.128;2024-01-16T05:51:29;15.77;;;10.33;;
2480;SDS011;57396;48.742;9.128;2024-01-16T05:53:55;14.67;;;7.83;;
2480;SDS011;57396;48.742;9.128;2024-01-16T05:56:21;20.47;;;14.00;;
2480;SDS011;57396;48.742;9.128;2024-01-16T05:58:46;23.53;;;13.53;;
2480;SDS011;57396;48.742;9.128;2024-01-16T06:01:11;11.53;;;7.43;;
2480;SDS011;57396;48.742;9.128;2024-01-16T06:03:40;19.43;;;10.00;;
2480;SDS011;57396;48.742;9.128;2024-01-16T06:06:06;21.93;;;13.43;;
2480;SDS011;57396;48.742;9.128;2024-01-16T06:08:32;22.33;;;13.43;;
2480;SDS011;57396;48.742;9.128;2024-01-16T06:10:58;12.50;;;9.50;;
2480;SDS011;57396;48.742;9.128;2024-01-16T06:13:23;10.40;;;7.60;;
2480;SDS011;57396;48.742;9.128;2024-01-16T06:15:49;11.07;;;7.50;;
2480;SDS011;57396;48.742;9.128;2024-01-16T06:18:14;8.03;;;5.43;;
2480;SDS011;57396;48.742;9.128;2024-01-16T06:20:39;8.20;;;4.90;;
2480;SDS011;57396;48.742;9.128;2024-01-16T06:23:05;9.40;;;5.13;;
2480;SDS011;57396;48.742;9.128;2024-01-16T06:25:30;7.90;;;4.77;;
2480;SDS011;57396;48.742;9.128;2024-01-16T06:27:56;8.10;;;4.73;;
2480;SDS011;57396;48.742;9.128;2024-01-16T06:30:22;6.90;;;4.87;;
2480;SDS011;57396;48.742;9.128;2024-01-16T06:32:48;6.07;;;4.13;;
2480;SDS011;57396;48.742;9.128;2024-01-16T06:35:15;7.57;;;4.50;;
2480;SDS011;57396;48.742;9.128;2024-01-16T06:37:41;5.40;;;4.00;;
2480;SDS011;57396;48.742;9.128;2024-01-16T06:40:06;7.00;;;4.30;;
2480;SDS011;57396;48.742;9.128;2024-01-16T06:42:32;5.87;;;3.60;;
2480;SDS011;57396;48.742;9.128;2024-01-16T06:44:58;7.57;;;4.63;;
2480;SDS011;57396;48.742;9.128;2024-01-16T06:47:23;5.20;;;3.70;;
2480;SDS011;57396;48.742;9.128;2024-01-16T06:49:49;7.80;;;4.57;;
2480;SDS011;57396;48.742;9.128;2024-01-16T06:52:14;5.90;;;4.60;;
2480;SDS011;57396;48.742;9.128;2024-01-16T06:54:40;11.70;;;4.67;;
2480;SDS011;57396;48.742;9.128;2024-01-16T06:57:05;6.97;;;4.20;;
2480;SDS011;57396;48.742;9.128;2024-01-16T06:59:31;6.90;;;4.30;;
2480;SDS011;57396;48.742;9.128;2024-01-16T07:01:57;6.23;;;4.50;;
2480;SDS011;57396;48.742;9.128;2024-01-16T07:04:22;9.17;;;4.33;;
2480;SDS011;57396;48.742;9.128;2024-01-16T07:06:47;6.07;;;3.83;;
2480;SDS011;57396;48.742;9.128;2024-01-16T07:09:13;7.23;;;4.00;;
2480;SDS011;57396;48.742;9.128;2024-01-16T07:11:39;5.50;;;3.80;;
2480;SDS011;57396;48.742;9.128;2024-01-16T07:14:08;6.10;;;4.60;;
2480;SDS011;57396;48.742;9.128;2024-01-16T07:16:34;5.43;;;3.97;;
2480;SDS011;57396;48.742;9.128;2024-01-16T07:19:00;5.17;;;3.70;;
2480;SDS011;57396;48.742;9.128;2024-01-16T07:21:27;5.83;;;4.30;;
2480;SDS011;57396;48.742;9.128;2024-01-16T07:23:53;5.60;;;3.80;;
2480;SDS011;57396;48.742;9.128;2024-01-16T07:26:19;9.20;;;4.70;;
2480;SDS011;57396;48.742;9.128;2024-01-16T07:28:44;8.50;;;4.43;;
2480;SDS011;57396;48.742;9.128;2024-01-16T07:31:10;9.20;;;4.73;;
2480;SDS011;57396;48.742;9.128;2024-01-16T07:33:36;5.20;;;3.70;;
2480;SDS011;57396;48.742;9.128;2024-01-16T07:36:02;5.30;;;3.90;;
2480;SDS011;57396;48.742;9.128;2024-01-16T07:38:27;7.23;;;4.27;;
2480;SDS011;57396;48.742;9.128;2024-01-16T07:40:53;5.70;;;4.07;;
2480;SDS011;57396;48.742;9.128;2024-01-16T07:43:18;8.67;;;4.87;;
2480;SDS011;57396;48.742;9.128;2024-01-16T07:45:43;5.30;;;4.40;;
2480;SDS011;57396;48.742;9.128;2024-01-16T07:48:09;5.47;;;4.10;;
2480;SDS011;57396;48.742;9.128;2024-01-16T07:50:34;6.30;;;4.10;;
2480;SDS011;57396;48.742;9.128;2024-01-16T07:53:00;11.00;;;4.80;;
2480;SDS011;57396;48.742;9.128;2024-01-16T07:55:25;10.77;;;4.43;;
2480;SDS011;57396;48.742;9.128;2024-01-16T07:57:51;12.53;;;5.20;;
2480;SDS011;57396;48.742;9.128;2024-01-16T08:00:18;10.97;;;5.30;;
2480;SDS011;57396;48.742;9.128;2024-01-16T08:02:44;9.87;;;4.77;;
2480;SDS011;57396;48.742;9.128;2024-01-16T08:05:09;7.60;;;4.50;;
2480;SDS011;57396;48.742;9.128;2024-01-16T08:07:35;6.63;;;4.60;;
2480;SDS011;57396;48.742;9.128;2024-01-16T08:10:00;6.17;;;4.20;;
2480;SDS011;57396;48.742;9.128;2024-01-16T08:12:26;6.00;;;4.20;;
2480;SDS011;57396;48.742;9.128;2024-01-16T08:14:51;8.77;;;4.00;;
2480;SDS011;57396;48.742;9.128;2024-01-16T08:17:17;6.43;;;3.63;;
2480;SDS011;57396;48.742;9.128;2024-01-16T08:19:43;7.07;;;4.50;;
2480;SDS011;57396;48.742;9.128;2024-01-16T08:22:08;11.43;;;4.80;;
2480;SDS011;57396;48.742;9.128;2024-01-16T08:24:33;8.63;;;4.70;;
2480;SDS011;57396;48.742;9.128;2024-01-16T08:26:59;7.63;;;4.43;;
2480;SDS011;57396;48.742;9.128;2024-01-16T08:29:25;9.40;;;3.97;;
2480;SDS011;57396;48.742;9.128;2024-01-16T08:31:50;6.20;;;4.03;;
2480;SDS011;57396;48.742;9.128;2024-01-16T08:34:19;7.73;;;4.53;;
2480;SDS011;57396;48.742;9.128;2024-01-16T08:36:44;6.70;;;4.50;;
2480;SDS011;57396;48.742;9.128;2024-01-16T08:39:10;8.50;;;4.23;;
2480;SDS011;57396;48.742;9.128;2024-01-16T08:41:35;7.43;;;4.33;;
2480;SDS011;57396;48.742;9.128;2024-01-16T08:44:01;6.33;;;4.60;;
2480;SDS011;57396;48.742;9.128;2024-01-16T08:46:26;6.40;;;4.23;;
2480;SDS011;57396;48.742;9.128;2024-01-16T08:48:52;8.70;;;4.57;;
2480;SDS011;57396;48.742;9.128;2024-01-16T08:51:17;4.97;;;3.77;;
2480;SDS011;57396;48.742;9.128;2024-01-16T08:53:43;6.90;;;3.80;;
2480;SDS011;57396;48.742;9.128;2024-01-16T08:56:08;8.77;;;3.70;;
2480;SDS011;57396;48.742;9.128;2024-01-16T08:58:34;4.90;;;3.80;;
2480;SDS011;57396;48.742;9.128;2024-01-16T09:01:04;5.90;;;4.00;;
2480;SDS011;57396;48.742;9.128;2024-01-16T09:03:30;7.20;;;3.93;;
2480;SDS011;57396;48.742;9.128;2024-01-16T09:05:57;7.77;;;3.60;;
2480;SDS011;57396;48.742;9.128;2024-01-16T09:08:22;4.50;;;3.83;;
2480;SDS011;57396;48.742;9.128;2024-01-16T09:10:48;6.40;;;3.97;;
2480;SDS011;57396;48.742;9.128;2024-01-16T09:13:13;7.37;;;3.83;;
2480;SDS011;57396;48.742;9.128;2024-01-16T09:15:39;9.00;;;4.00;;
2480;SDS011;57396;48.742;9.128;2024-01-16T09:18:04;7.20;;;4.17;;
2480;SDS011;57396;48.742;9.128;2024-01-16T09:20:31;9.03;;;4.50;;
2480;SDS011;57396;48.742;9.128;2024-01-16T09:22:56;7.57;;;4.50;;
2480;SDS011;57396;48.742;9.128;2024-01-16T09:25:22;6.50;;;4.10;;
2480;SDS011;57396;48.742;9.128;2024-01-16T09:27:50;6.90;;;4.30;;
2480;SDS011;57396;48.742;9.128;2024-01-16T09:30:16;6.33;;;3.87;;
2480;SDS011;57396;48.742;9.128;2024-01-16T09:32:41;5.97;;;4.00;;
2480;SDS011;57396;48.742;9.128;2024-01-16T09:35:07;7.37;;;4.00;;
2480;SDS011;57396;48.742;9.128;2024-01-16T09:37:34;7.63;;;4.30;;
2480;SDS011;57396;48.742;9.128;2024-01-16T09:40:00;7.60;;;4.20;;
2480;SDS011;57396;48.742;9.128;2024-01-16T09:42:25;6.13;;;4.00;;
2480;SDS011;57396;48.742;9.128;2024-01-16T09:44:52;7.20;;;4.00;;
2480;SDS011;57396;48.742;9.128;2024-01-16T09:47:20;8.20;;;4.20;;
2480;SDS011;57396;48.742;9.128;2024-01-16T09:49:46;5.70;;;3.90;;
2480;SDS011;57396;48.742;9.128;2024-01-16T09:52:11;6.27;;;3.40;;
2480;SDS011;57396;48.742;9.128;2024-01-16T09:54:37;6.67;;;3.83;;
2480;SDS011;57396;48.742;9.128;2024-01-16T09:57:02;7.43;;;3.70;;
2480;SDS011;57396;48.742;9.128;2024-01-16T09:59:31;3.90;;;3.27;;
2480;SDS011;57396;48.742;9.128;2024-01-16T10:01:57;5.33;;;3.60;;
2480;SDS011;57396;48.742;9.128;2024-01-16T10:04:26;7.63;;;3.60;;
2480;SDS011;57396;48.742;9.128;2024-01-16T10:06:53;8.23;;;4.20;;
2480;SDS011;57396;48.742;9.128;2024-01-16T10:09:19;4.40;;;3.30;;
2480;SDS011;57396;48.742;9.128;2024-01-16T10:11:44;4.73;;;3.30;;
2480;SDS011;57396;48.742;9.128;2024-01-16T10:14:10;5.30;;;3.40;;
2480;SDS011;57396;48.742;9.128;2024-01-16T10:16:54;6.17;;;3.70;;
2480;SDS011;57396;48.742;9.128;2024-01-16T10:19:21;7.40;;;3.70;;
2480;SDS011;57396;48.742;9.128;2024-01-16T10:21:46;4.37;;;3.07;;
2480;SDS011;57396;48.742;9.128;2024-01-16T10:24:12;7.57;;;3.10;;
2480;SDS011;57396;48.742;9.128;2024-01-16T10:26:38;4.57;;;3.13;;
2480;SDS011;57396;48.742;9.128;2024-01-16T10:29:03;4.20;;;3.30;;
2480;SDS011;57396;48.742;9.128;2024-01-16T10:31:32;3.27;;;2.70;;
2480;SDS011;57396;48.742;9.128;2024-01-16T10:33:57;6.30;;;3.27;;
2480;SDS011;57396;48.742;9.128;2024-01-16T10:36:23;5.77;;;3.07;;
2480;SDS011;57396;48.742;9.128;2024-01-16T10:38:50;7.30;;;3.50;;
2480;SDS011;57396;48.742;9.128;2024-01-16T10:41:23;5.90;;;3.27;;
2480;SDS011;57396;48.742;9.128;2024-01-16T10:44:04;5.70;;;3.20;;
2480;SDS011;57396;48.742;9.128;2024-01-16T10:46:32;7.30;;;3.30;;
2480;SDS011;57396;48.742;9.128;2024-01-16T10:48:58;8.20;;;3.10;;
2480;SDS011;57396;48.742;9.128;2024-01-16T10:51:26;9.23;;;3.53;;
2480;SDS011;57396;48.742;9.128;2024-01-16T10:53:52;4.80;;;2.90;;
2480;SDS011;57396;48.742;9.128;2024-01-16T10:56:22;6.70;;;2.70;;
2480;SDS011;57396;48.742;9.128;2024-01-16T10:58:50;4.50;;;2.83;;
2480;SDS011;57396;48.742;9.128;2024-01-16T11:01:23;6.80;;;2.80;;
2480;SDS011;57396;48.742;9.128;2024-01-16T11:03:49;4.97;;;2.90;;
2480;SDS011;57396;48.742;9.128;2024-01-16T11:06:16;3.43;;;2.80;;
2480;SDS011;57396;48.742;9.128;2024-01-16T11:08:43;4.67;;;2.67;;
2480;SDS011;57396;48.742;9.128;2024-01-16T11:11:11;5.10;;;2.87;;
2480;SDS011;57396;48.742;9.128;2024-01-16T11:13:38;7.00;;;3.10;;
2480;SDS011;57396;48.742;9.128;2024-01-16T11:16:04;6.90;;;3.17;;
2480;SDS011;57396;48.742;9.128;2024-01-16T11:18:30;5.73;;;2.90;;
2480;SDS011;57396;48.742;9.128;2024-01-16T11:20:58;4.83;;;2.80;;
2480;SDS011;57396;48.742;9.128;2024-01-16T11:23:23;4.13;;;2.87;;
2480;SDS011;57396;48.742;9.128;2024-01-16T11:25:49;6.00;;;3.60;;
2480;SDS011;57396;48.742;9.128;2024-01-16T11:28:14;11.40;;;2.90;;
2480;SDS011;57396;48.742;9.128;2024-01-16T11:30:41;5.20;;;3.07;;
2480;SDS011;57396;48.742;9.128;2024-01-16T11:35:56;4.60;;;2.90;;
2480;SDS011;57396;48.742;9.128;2024-01-16T11:38:22;6.77;;;3.50;;
2480;SDS011;57396;48.742;9.128;2024-01-16T11:40:49;3.73;;;2.97;;
2480;SDS011;57396;48.742;9.128;2024-01-16T11:45:58;4.60;;;2.90;;
2480;SDS011;57396;48.742;9.128;2024-01-16T11:48:24;4.33;;;2.50;;
2480;SDS011;57396;48.742;9.128;2024-01-16T11:50:50;3.97;;;2.30;;
2480;SDS011;57396;48.742;9.128;2024-01-16T12:01:43;6.70;;;2.80;;
2480;SDS011;57396;48.742;9.128;2024-01-16T12:04:10;3.10;;;2.00;;
2480;SDS011;57396;48.742;9.128;2024-01-16T12:06:35;6.00;;;2.87;;
2480;SDS011;57396;48.742;9.128;2024-01-16T12:09:15;4.07;;;2.70;;
2480;SDS011;57396;48.742;9.128;2024-01-16T12:11:42;7.20;;;2.90;;
2480;SDS011;57396;48.742;9.128;2024-01-16T12:14:10;3.40;;;2.60;;
2480;SDS011;57396;48.742;9.128;2024-01-16T12:16:36;3.20;;;2.20;;
2480;SDS011;57396;48.742;9.128;2024-01-16T12:19:06;5.60;;;2.17;;
2480;SDS011;57396;48.742;9.128;2024-01-16T12:21:43;7.77;;;4.60;;
2480;SDS011;57396;48.742;9.128;2024-01-16T12:24:12;5.27;;;2.20;;
2480;SDS011;57396;48.742;9.128;2024-01-16T12:26:38;11.17;;;2.47;;
2480;SDS011;57396;48.742;9.128;2024-01-16T12:29:04;4.30;;;2.10;;
2480;SDS011;57396;48.742;9.128;2024-01-16T12:31:30;5.93;;;2.60;;
2480;SDS011;57396;48.742;9.128;2024-01-16T12:34:05;8.00;;;4.90;;
2480;SDS011;57396;48.742;9.128;2024-01-16T12:36:30;5.47;;;2.50;;
2480;SDS011;57396;48.742;9.128;2024-01-16T12:38:56;7.80;;;3.87;;
2480;SDS011;57396;48.742;9.128;2024-01-16T12:41:21;6.60;;;4.10;;
2480;SDS011;57396;48.742;9.128;2024-01-16T12:43:51;8.67;;;5.00;;
2480;SDS011;57396;48.742;9.128;2024-01-16T12:46:16;6.40;;;3.83;;
2480;SDS011;57396;48.742;9.128;2024-01-16T12:48:44;5.53;;;3.00;;
2480;SDS011;57396;48.742;9.128;2024-01-16T12:51:10;8.40;;;3.70;;
2480;SDS011;57396;48.742;9.128;2024-01-16T12:53:37;7.70;;;3.67;;
2480;SDS011;57396;48.742;9.128;2024-01-16T12:56:04;8.20;;;3.90;;
2480;SDS011;57396;48.742;9.128;2024-01-16T12:58:33;5.50;;;3.07;;
2480;SDS011;57396;48.742;9.128;2024-01-16T13:03:51;5.77;;;3.20;;
2480;SDS011;57396;48.742;9.128;2024-01-16T13:06:18;4.10;;;2.73;;
2480;SDS011;57396;48.742;9.128;2024-01-16T13:08:47;3.13;;;2.30;;
2480;SDS011;57396;48.742;9.128;2024-01-16T13:11:13;4.93;;;2.70;;
2480;SDS011;57396;48.742;9.128;2024-01-16T13:13:45;3.87;;;3.10;;
2480;SDS011;57396;48.742;9.128;2024-01-16T13:16:12;3.37;;;2.47;;
2480;SDS011;57396;48.742;9.128;2024-01-16T13:18:38;2.53;;;2.00;;
2480;SDS011;57396;48.742;9.128;2024-01-16T13:21:03;4.40;;;2.70;;
2480;SDS011;57396;48.742;9.128;2024-01-16T13:23:29;2.73;;;2.17;;
2480;SDS011;57396;48.742;9.128;2024-01-16T13:25:55;3.40;;;2.57;;
2480;SDS011;57396;48.742;9.128;2024-01-16T13:28:22;5.63;;;3.30;;
2480;SDS011;57396;48.742;9.128;2024-01-16T13:30:49;3.93;;;2.43;;
2480;SDS011;57396;48.742;9.128;2024-01-16T13:33:15;2.67;;;2.20;;
2480;SDS011;57396;48.742;9.128;2024-01-16T13:35:44;2.97;;;2.67;;
2480;SDS011;57396;48.742;9.128;2024-01-16T13:38:14;2.97;;;2.67;;
2480;SDS011;57396;48.742;9.128;2024-01-16T13:40:44;2.43;;;2.23;;
2480;SDS011;57396;48.742;9.128;2024-01-16T13:43:09;7.07;;;2.43;;
2480;SDS011;57396;48.742;9.128;2024-01-16T13:45:37;5.50;;;2.87;;
2480;SDS011;57396;48.742;9.128;2024-01-16T13:48:06;3.20;;;2.63;;
2480;SDS011;57396;48.742;9.128;2024-01-16T13:50:32;7.63;;;2.90;;
2480;SDS011;57396;48.742;9.128;2024-01-16T13:53:01;2.67;;;2.43;;
2480;SDS011;57396;48.742;9.128;2024-01-16T13:55:27;14.40;;;9.80;;
2480;SDS011;57396;48.742;9.128;2024-01-16T13:57:53;5.43;;;3.90;;
2480;SDS011;57396;48.742;9.128;2024-01-16T14:00:19;11.67;;;8.00;;
2480;SDS011;57396;48.742;9.128;2024-01-16T14:02:45;5.30;;;2.57;;
2480;SDS011;57396;48.742;9.128;2024-01-16T14:05:12;8.53;;;2.27;;
2480;SDS011;57396;48.742;9.128;2024-01-16T14:07:41;2.70;;;2.30;;
2480;SDS011;57396;48.742;9.128;2024-01-16T14:10:07;3.80;;;2.40;;
2480;SDS011;57396;48.742;9.128;2024-01-16T14:12:40;3.27;;;2.13;;
2480;SDS011;57396;48.742;9.128;2024-01-16T14:15:08;3.77;;;2.40;;
2480;SDS011;57396;48.742;9.128;2024-01-16T14:17:41;6.83;;;2.90;;
2480;SDS011;57396;48.742;9.128;2024-01-16T14:20:08;11.13;;;4.70;;
2480;SDS011;57396;48.742;9.128;2024-01-16T14:22:36;9.13;;;5.17;;
2480;SDS011;57396;48.742;9.128;2024-01-16T14:25:03;3.53;;;2.23;;
2480;SDS011;57396;48.742;9.128;2024-01-16T14:27:36;4.13;;;2.70;;
2480;SDS011;57396;48.742;9.128;2024-01-16T14:30:08;5.67;;;2.47;;
2480;SDS011;57396;48.742;9.128;2024-01-16T14:32:36;4.70;;;2.60;;
2480;SDS011;57396;48.742;9.128;2024-01-16T14:35:05;2.07;;;1.83;;
2480;SDS011;57396;48.742;9.128;2024-01-16T14:37:32;3.80;;;2.73;;
2480;SDS011;57396;48.742;9.128;2024-01-16T14:39:59;3.17;;;2.40;;
2480;SDS011;57396;48.742;9.128;2024-01-16T14:42:26;3.10;;;2.10;;
2480;SDS011;57396;48.742;9.128;2024-01-16T14:44:53;2.83;;;2.40;;
2480;SDS011;57396;48.742;9.128;2024-01-16T14:47:18;4.30;;;2.80;;
2480;SDS011;57396;48.742;9.128;2024-01-16T14:49:43;3.90;;;2.33;;
2480;SDS011;57396;48.742;9.128;2024-01-16T14:52:09;5.87;;;2.60;;
2480;SDS011;57396;48.742;9.128;2024-01-16T14:54:36;3.20;;;2.70;;
2480;SDS011;57396;48.742;9.128;2024-01-16T14:57:01;8.13;;;3.37;;
2480;SDS011;57396;48.742;9.128;2024-01-16T14:59:27;5.03;;;3.10;;
2480;SDS011;57396;48.742;9.128;2024-01-16T15:01:52;4.60;;;3.37;;
2480;SDS011;57396;48.742;9.128;2024-01-16T15:04:19;5.13;;;2.93;;
2480;SDS011;57396;48.742;9.128;2024-01-16T15:06:45;12.97;;;3.30;;
2480;SDS011;57396;48.742;9.128;2024-01-16T15:09:10;6.87;;;3.30;;
2480;SDS011;57396;48.742;9.128;2024-01-16T15:11:37;3.60;;;2.93;;
2480;SDS011;57396;48.742;9.128;2024-01-16T15:14:02;7.07;;;3.47;;